sensor_id;sensor_type;location;lat;lon;timestamp;pressure;altitude;pressure_sealevel;temperature;humidity
74621;BME280;64861;47.546;19.254;2023-02-01T00:02:02;99160.69;;;11.23;48.10
74621;BME280;64861;47.546;19.254;2023-02-01T00:04:28;99160.50;;;11.26;48.00
74621;BME280;64861;47.546;19.254;2023-02-01T00:06:54;99155.34;;;11.25;48.10
74621;BME280;64861;47.546;19.254;2023-02-01T00:09:19;99156.19;;;11.25;48.29
74621;BME280;64861;47.546;19.254;2023-02-01T00:11:45;99151.81;;;11.26;47.99
74621;BME280;64861;47.546;19.254;2023-02-01T00:14:11;99153.56;;;11.25;48.10
74621;BME280;64861;47.546;19.254;2023-02-01T00:16:36;99160.59;;;11.25;47.94
74621;BME280;64861;47.546;19.254;2023-02-01T00:19:05;99155.47;;;11.23;48.20
74621;BME280;64861;47.546;19.254;2023-02-01T00:21:31;99153.69;;;11.24;48.11
74621;BME280;64861;47.546;19.254;2023-02-01T00:23:57;99165.81;;;11.25;48.08
74621;BME280;64861;47.546;19.254;2023-02-01T00:26:30;99164.16;;;11.24;48.16
74621;BME280;64861;47.546;19.254;2023-02-01T00:28:56;99157.34;;;11.21;48.02
74621;BME280;64861;47.546;19.254;2023-02-01T00:31:21;99166.13;;;11.20;48.22
74621;BME280;64861;47.546;19.254;2023-02-01T00:33:47;99172.94;;;11.23;48.20
74621;BME280;64861;47.546;19.254;2023-02-01T00:36:14;99171.25;;;11.22;48.10
74621;BME280;64861;47.546;19.254;2023-02-01T00:38:39;99172.09;;;11.22;48.00
74621;BME280;64861;47.546;19.254;2023-02-01T00:41:07;99164.22;;;11.22;48.22
74621;BME280;64861;47.546;19.254;2023-02-01T00:43:34;99177.56;;;11.19;48.16
74621;BME280;64861;47.546;19.254;2023-02-01T00:46:00;99171.25;;;11.22;48.13
74621;BME280;64861;47.546;19.254;2023-02-01T00:48:26;99165.31;;;11.20;48.50
74621;BME280;64861;47.546;19.254;2023-02-01T00:50:51;99167.19;;;11.18;47.97
74621;BME280;64861;47.546;19.254;2023-02-01T00:53:17;99166.97;;;11.21;47.80
74621;BME280;64861;47.546;19.254;2023-02-01T00:55:47;99169.69;;;11.19;48.26
74621;BME280;64861;47.546;19.254;2023-02-01T00:58:13;99158.28;;;11.20;48.13
74621;BME280;64861;47.546;19.254;2023-02-01T01:00:38;99156.72;;;11.18;48.13
74621;BME280;64861;47.546;19.254;2023-02-01T01:03:04;99160.28;;;11.17;48.00
74621;BME280;64861;47.546;19.254;2023-02-01T01:05:56;99172.41;;;11.18;48.12
74621;BME280;64861;47.546;19.254;2023-02-01T01:08:22;99156.84;;;11.16;48.29
74621;BME280;64861;47.546;19.254;2023-02-01T01:10:47;99150.66;;;11.17;48.03
74621;BME280;64861;47.546;19.254;2023-02-01T01:13:14;99143.75;;;11.16;48.26
74621;BME280;64861;47.546;19.254;2023-02-01T01:15:39;99140.19;;;11.17;48.22
74621;BME280;64861;47.546;19.254;2023-02-01T01:18:05;99126.28;;;11.17;48.26
74621;BME280;64861;47.546;19.254;2023-02-01T01:20:34;99128.06;;;11.16;48.11
74621;BME280;64861;47.546;19.254;2023-02-01T01:23:00;99121.06;;;11.17;48.18
74621;BME280;64861;47.546;19.254;2023-02-01T01:25:26;99113.22;;;11.17;48.08
74621;BME280;64861;47.546;19.254;2023-02-01T01:27:51;99117.47;;;11.18;48.04
74621;BME280;64861;47.546;19.254;2023-02-01T01:30:17;99107.97;;;11.17;48.13
74621;BME280;64861;47.546;19.254;2023-02-01T01:32:43;99107.16;;;11.16;48.03
74621;BME280;64861;47.546;19.254;2023-02-01T01:35:09;99107.16;;;11.16;48.11
74621;BME280;64861;47.546;19.254;2023-02-01T01:37:35;99104.63;;;11.15;48.18
74621;BME280;64861;47.546;19.254;2023-02-01T01:40:02;99098.69;;;11.13;48.11
74621;BME280;64861;47.546;19.254;2023-02-01T01:42:27;99090.72;;;11.14;48.16
74621;BME280;64861;47.546;19.254;2023-02-01T01:45:04;99097.72;;;11.14;48.27
74621;BME280;64861;47.546;19.254;2023-02-01T01:47:43;99102.97;;;11.14;48.34
74621;BME280;64861;47.546;19.254;2023-02-01T01:50:18;99091.66;;;11.13;48.12
74621;BME280;64861;47.546;19.254;2023-02-01T01:52:49;99094.38;;;11.12;48.29
74621;BME280;64861;47.546;19.254;2023-02-01T01:55:17;99105.56;;;11.14;48.24
74621;BME280;64861;47.546;19.254;2023-02-01T01:57:50;99111.63;;;11.14;48.14
74621;BME280;64861;47.546;19.254;2023-02-01T02:00:20;99113.28;;;11.15;48.06
74621;BME280;64861;47.546;19.254;2023-02-01T02:02:48;99115.09;;;11.15;48.08
74621;BME280;64861;47.546;19.254;2023-02-01T02:05:18;99102.13;;;11.13;48.14
74621;BME280;64861;47.546;19.254;2023-02-01T02:07:46;99106.53;;;11.13;48.27
74621;BME280;64861;47.546;19.254;2023-02-01T02:10:14;99096.97;;;11.12;48.27
74621;BME280;64861;47.546;19.254;2023-02-01T02:12:42;99091.66;;;11.13;48.30
74621;BME280;64861;47.546;19.254;2023-02-01T02:15:11;99091.75;;;11.12;48.11
74621;BME280;64861;47.546;19.254;2023-02-01T02:25:51;99093.44;;;11.13;48.20
74621;BME280;64861;47.546;19.254;2023-02-01T02:34:28;99091.75;;;11.12;48.31
74621;BME280;64861;47.546;19.254;2023-02-01T02:45:39;99072.75;;;11.10;48.42
74621;BME280;64861;47.546;19.254;2023-02-01T02:48:30;99077.09;;;11.09;48.18
74621;BME280;64861;47.546;19.254;2023-02-01T02:54:13;99075.44;;;11.08;48.22
74621;BME280;64861;47.546;19.254;2023-02-01T02:56:59;99064.97;;;11.08;48.22
74621;BME280;64861;47.546;19.254;2023-02-01T02:59:47;99057.13;;;11.08;48.15
74621;BME280;64861;47.546;19.254;2023-02-01T03:02:32;99063.09;;;11.10;48.03
74621;BME280;64861;47.546;19.254;2023-02-01T03:05:17;99056.31;;;11.08;48.19
74621;BME280;64861;47.546;19.254;2023-02-01T03:07:57;99058.91;;;11.08;48.26
74621;BME280;64861;47.546;19.254;2023-02-01T03:13:05;99058.09;;;11.07;48.25
74621;BME280;64861;47.546;19.254;2023-02-01T03:18:13;99044.19;;;11.07;48.17
74621;BME280;64861;47.546;19.254;2023-02-01T03:20:43;99045.97;;;11.06;48.35
74621;BME280;64861;47.546;19.254;2023-02-01T03:23:11;99050.34;;;11.05;48.24
74621;BME280;64861;47.546;19.254;2023-02-01T03:25:39;99051.19;;;11.06;48.24
74621;BME280;64861;47.546;19.254;2023-02-01T03:28:07;99054.72;;;11.05;48.36
74621;BME280;64861;47.546;19.254;2023-02-01T03:30:39;99063.41;;;11.05;48.27
74621;BME280;64861;47.546;19.254;2023-02-01T03:33:11;99063.41;;;11.05;48.12
74621;BME280;64861;47.546;19.254;2023-02-01T03:38:38;99048.88;;;11.01;48.32
74621;BME280;64861;47.546;19.254;2023-02-01T03:41:15;99051.41;;;11.03;48.22
74621;BME280;64861;47.546;19.254;2023-02-01T03:46:35;99063.53;;;11.04;48.25
74621;BME280;64861;47.546;19.254;2023-02-01T03:49:05;99060.91;;;11.04;48.29
74621;BME280;64861;47.546;19.254;2023-02-01T03:51:32;99059.97;;;11.05;48.17
74621;BME280;64861;47.546;19.254;2023-02-01T03:54:01;99067.94;;;11.03;48.29
74621;BME280;64861;47.546;19.254;2023-02-01T03:56:29;99058.38;;;11.02;48.36
74621;BME280;64861;47.546;19.254;2023-02-01T03:58:56;99056.63;;;11.03;48.37
74621;BME280;64861;47.546;19.254;2023-02-01T04:01:28;99045.31;;;11.02;48.35
74621;BME280;64861;47.546;19.254;2023-02-01T04:03:55;99043.66;;;11.01;48.31
74621;BME280;64861;47.546;19.254;2023-02-01T04:06:20;99047.22;;;11.00;48.23
74621;BME280;64861;47.546;19.254;2023-02-01T04:08:46;99041.03;;;11.01;48.33
74621;BME280;64861;47.546;19.254;2023-02-01T04:11:12;99039.38;;;11.00;48.37
74621;BME280;64861;47.546;19.254;2023-02-01T04:13:37;99038.63;;;10.98;48.49
74621;BME280;64861;47.546;19.254;2023-02-01T04:16:03;99042.81;;;11.01;48.08
74621;BME280;64861;47.546;19.254;2023-02-01T04:18:28;99039.38;;;11.00;48.27
74621;BME280;64861;47.546;19.254;2023-02-01T04:20:54;99034.25;;;10.99;48.29
74621;BME280;64861;47.546;19.254;2023-02-01T04:23:19;99040.22;;;11.01;48.23
74621;BME280;64861;47.546;19.254;2023-02-01T04:25:45;99039.47;;;10.99;48.23
74621;BME280;64861;47.546;19.254;2023-02-01T04:28:11;99040.34;;;10.99;48.26
74621;BME280;64861;47.546;19.254;2023-02-01T04:30:36;99043.88;;;10.98;48.26
74621;BME280;64861;47.546;19.254;2023-02-01T04:33:02;99041.25;;;10.98;48.21
74621;BME280;64861;47.546;19.254;2023-02-01T04:35:30;99042.19;;;10.97;48.40
74621;BME280;64861;47.546;19.254;2023-02-01T04:37:55;99039.47;;;10.99;48.35
74621;BME280;64861;47.546;19.254;2023-02-01T04:40:21;99037.94;;;10.96;48.25
74621;BME280;64861;47.546;19.254;2023-02-01T04:42:46;99037.81;;;10.98;48.42
74621;BME280;64861;47.546;19.254;2023-02-01T04:45:12;99034.38;;;10.97;48.39
74621;BME280;64861;47.546;19.254;2023-02-01T04:47:38;99039.69;;;10.96;48.42
74621;BME280;64861;47.546;19.254;2023-02-01T04:50:04;99044.00;;;10.97;48.46
74621;BME280;64861;47.546;19.254;2023-02-01T04:52:31;99046.59;;;10.97;48.32
74621;BME280;64861;47.546;19.254;2023-02-01T04:54:56;99047.44;;;10.97;48.21
74621;BME280;64861;47.546;19.254;2023-02-01T04:57:24;99043.16;;;10.96;48.21
74621;BME280;64861;47.546;19.254;2023-02-01T04:59:50;99054.66;;;10.94;48.33
74621;BME280;64861;47.546;19.254;2023-02-01T05:02:15;99069.50;;;10.93;48.32
74621;BME280;64861;47.546;19.254;2023-02-01T05:04:41;99061.53;;;10.95;48.24
74621;BME280;64861;47.546;19.254;2023-02-01T05:07:06;99049.31;;;10.95;48.46
74621;BME280;64861;47.546;19.254;2023-02-01T05:09:32;99054.75;;;10.92;48.31
74621;BME280;64861;47.546;19.254;2023-02-01T05:11:57;99049.44;;;10.94;48.33
74621;BME280;64861;47.546;19.254;2023-02-01T05:14:41;99051.22;;;10.93;48.34
74621;BME280;64861;47.546;19.254;2023-02-01T05:17:06;99062.50;;;10.94;48.43
74621;BME280;64861;47.546;19.254;2023-02-01T05:19:32;99057.34;;;10.92;48.33
74621;BME280;64861;47.546;19.254;2023-02-01T05:21:57;99071.28;;;10.93;48.47
74621;BME280;64861;47.546;19.254;2023-02-01T05:24:23;99054.03;;;10.90;48.44
74621;BME280;64861;47.546;19.254;2023-02-01T05:26:48;99060.09;;;10.91;48.35
74621;BME280;64861;47.546;19.254;2023-02-01T05:29:15;99064.50;;;10.90;48.41
74621;BME280;64861;47.546;19.254;2023-02-01T05:31:41;99054.75;;;10.92;48.33
74621;BME280;64861;47.546;19.254;2023-02-01T05:34:07;99061.88;;;10.90;48.41
74621;BME280;64861;47.546;19.254;2023-02-01T05:36:33;99049.72;;;10.89;48.27
74621;BME280;64861;47.546;19.254;2023-02-01T05:38:58;99047.03;;;10.91;48.29
74621;BME280;64861;47.546;19.254;2023-02-01T05:41:24;99054.13;;;10.89;48.36
74621;BME280;64861;47.546;19.254;2023-02-01T05:43:49;99038.78;;;10.84;48.36
74621;BME280;64861;47.546;19.254;2023-02-01T05:46:15;99045.44;;;10.88;48.54
74621;BME280;64861;47.546;19.254;2023-02-01T05:48:41;99052.34;;;10.89;48.40
74621;BME280;64861;47.546;19.254;2023-02-01T05:51:08;99048.91;;;10.89;48.54
74621;BME280;64861;47.546;19.254;2023-02-01T05:53:33;99057.56;;;10.89;48.39
74621;BME280;64861;47.546;19.254;2023-02-01T05:55:59;99065.41;;;10.89;48.20
74621;BME280;64861;47.546;19.254;2023-02-01T05:58:24;99067.31;;;10.87;48.49
74621;BME280;64861;47.546;19.254;2023-02-01T06:00:50;99068.03;;;10.89;48.52
74621;BME280;64861;47.546;19.254;2023-02-01T06:03:16;99068.16;;;10.88;48.47
74621;BME280;64861;47.546;19.254;2023-02-01T06:05:44;99066.28;;;10.90;48.41
74621;BME280;64861;47.546;19.254;2023-02-01T06:10:45;99070.63;;;10.89;48.41
74621;BME280;64861;47.546;19.254;2023-02-01T06:13:10;99082.16;;;10.87;48.28
74621;BME280;64861;47.546;19.254;2023-02-01T06:29:21;99097.53;;;10.91;48.33
74621;BME280;64861;47.546;19.254;2023-02-01T06:31:46;99086.25;;;10.91;48.27
74621;BME280;64861;47.546;19.254;2023-02-01T06:34:12;99095.75;;;10.92;48.36
74621;BME280;64861;47.546;19.254;2023-02-01T06:36:37;99094.81;;;10.93;48.07
74621;BME280;64861;47.546;19.254;2023-02-01T06:39:03;99102.66;;;10.93;48.29
74621;BME280;64861;47.546;19.254;2023-02-01T06:41:29;99101.72;;;10.94;48.22
74621;BME280;64861;47.546;19.254;2023-02-01T06:43:54;99099.09;;;10.94;48.27
74621;BME280;64861;47.546;19.254;2023-02-01T06:46:20;99098.97;;;10.95;48.28
74621;BME280;64861;47.546;19.254;2023-02-01T06:48:45;99104.22;;;10.95;48.27
74621;BME280;64861;47.546;19.254;2023-02-01T06:51:29;99105.16;;;10.94;48.30
74621;BME280;64861;47.546;19.254;2023-02-01T06:53:55;99106.81;;;10.95;48.28
74621;BME280;64861;47.546;19.254;2023-02-01T06:56:20;99113.75;;;10.96;48.09
74621;BME280;64861;47.546;19.254;2023-02-01T06:58:46;99115.50;;;10.96;48.29
74621;BME280;64861;47.546;19.254;2023-02-01T07:01:11;99120.72;;;10.96;48.15
74621;BME280;64861;47.546;19.254;2023-02-01T07:03:38;99110.19;;;10.97;48.22
74621;BME280;64861;47.546;19.254;2023-02-01T07:06:04;99106.72;;;10.97;48.15
74621;BME280;64861;47.546;19.254;2023-02-01T07:08:35;99107.34;;;11.00;48.14
74621;BME280;64861;47.546;19.254;2023-02-01T07:11:03;99110.81;;;11.01;48.03
74621;BME280;64861;47.546;19.254;2023-02-01T07:13:28;99107.25;;;11.02;48.06
74621;BME280;64861;47.546;19.254;2023-02-01T07:15:54;99113.22;;;11.04;48.18
74621;BME280;64861;47.546;19.254;2023-02-01T07:18:19;99113.22;;;11.04;47.91
74621;BME280;64861;47.546;19.254;2023-02-01T07:20:50;99120.00;;;11.07;47.91
74621;BME280;64861;47.546;19.254;2023-02-01T07:23:15;99114.16;;;11.03;47.86
74621;BME280;64861;47.546;19.254;2023-02-01T07:25:40;99116.34;;;11.09;47.78
74621;BME280;64861;47.546;19.254;2023-02-01T07:28:06;99125.66;;;11.13;47.74
74621;BME280;64861;47.546;19.254;2023-02-01T07:30:31;99128.16;;;11.15;47.94
74621;BME280;64861;47.546;19.254;2023-02-01T07:32:57;99124.59;;;11.16;47.75
74621;BME280;64861;47.546;19.254;2023-02-01T07:35:26;99120.22;;;11.16;47.72
74621;BME280;64861;47.546;19.254;2023-02-01T07:37:52;99136.41;;;11.21;47.66
74621;BME280;64861;47.546;19.254;2023-02-01T07:40:18;99134.53;;;11.23;47.53
74621;BME280;64861;47.546;19.254;2023-02-01T07:42:43;99136.13;;;11.26;47.44
74621;BME280;64861;47.546;19.254;2023-02-01T07:45:09;99140.50;;;11.25;47.59
74621;BME280;64861;47.546;19.254;2023-02-01T07:47:34;99151.38;;;11.32;47.48
74621;BME280;64861;47.546;19.254;2023-02-01T07:50:00;99154.50;;;11.37;47.31
74621;BME280;64861;47.546;19.254;2023-02-01T07:52:28;99166.44;;;11.41;47.22
74621;BME280;64861;47.546;19.254;2023-02-01T07:54:54;99167.78;;;11.47;47.01
74621;BME280;64861;47.546;19.254;2023-02-01T07:57:19;99171.78;;;11.52;47.03
74621;BME280;64861;47.546;19.254;2023-02-01T07:59:45;99174.06;;;11.57;46.79
74621;BME280;64861;47.546;19.254;2023-02-01T08:02:29;99178.03;;;11.63;46.71
74621;BME280;64861;47.546;19.254;2023-02-01T08:04:54;99176.88;;;11.67;46.73
74621;BME280;64861;47.546;19.254;2023-02-01T08:07:20;99179.28;;;11.70;46.56
74621;BME280;64861;47.546;19.254;2023-02-01T08:09:45;99175.50;;;11.74;46.53
74621;BME280;64861;47.546;19.254;2023-02-01T08:12:10;99168.59;;;11.73;46.31
74621;BME280;64861;47.546;19.254;2023-02-01T08:14:36;99165.22;;;11.71;46.40
74621;BME280;64861;47.546;19.254;2023-02-01T08:17:01;99163.78;;;11.67;46.62
74621;BME280;64861;47.546;19.254;2023-02-01T08:19:27;99159.72;;;11.63;46.68
74621;BME280;64861;47.546;19.254;2023-02-01T08:21:52;99161.16;;;11.67;46.77
74621;BME280;64861;47.546;19.254;2023-02-01T08:24:18;99157.38;;;11.71;46.31
74621;BME280;64861;47.546;19.254;2023-02-01T08:26:43;99161.22;;;11.78;46.54
74621;BME280;64861;47.546;19.254;2023-02-01T08:29:09;99154.63;;;11.85;46.34
74621;BME280;64861;47.546;19.254;2023-02-01T08:31:37;99165.84;;;11.87;46.24
74621;BME280;64861;47.546;19.254;2023-02-01T08:34:05;99177.06;;;11.89;46.30
74621;BME280;64861;47.546;19.254;2023-02-01T08:36:33;99180.31;;;11.93;46.20
74621;BME280;64861;47.546;19.254;2023-02-01T08:38:59;99181.00;;;11.95;45.99
74621;BME280;64861;47.546;19.254;2023-02-01T08:41:28;99182.91;;;11.93;46.09
74621;BME280;64861;47.546;19.254;2023-02-01T08:43:54;99181.97;;;11.94;46.06
74621;BME280;64861;47.546;19.254;2023-02-01T08:46:20;99189.47;;;11.98;46.02
74621;BME280;64861;47.546;19.254;2023-02-01T08:48:47;99175.94;;;12.05;46.02
74621;BME280;64861;47.546;19.254;2023-02-01T08:51:15;99186.34;;;12.06;45.87
74621;BME280;64861;47.546;19.254;2023-02-01T08:53:41;99187.78;;;12.10;45.88
74621;BME280;64861;47.546;19.254;2023-02-01T08:56:08;99163.84;;;12.15;45.83
74621;BME280;64861;47.546;19.254;2023-02-01T08:58:34;99195.59;;;12.23;45.78
74621;BME280;64861;47.546;19.254;2023-02-01T09:01:12;99184.78;;;12.28;45.39
74621;BME280;64861;47.546;19.254;2023-02-01T09:03:38;99201.22;;;12.54;45.03
74621;BME280;64861;47.546;19.254;2023-02-01T09:06:06;99201.19;;;12.78;44.39
74621;BME280;64861;47.546;19.254;2023-02-01T09:08:33;99195.63;;;12.82;44.23
74621;BME280;64861;47.546;19.254;2023-02-01T09:11:00;99201.09;;;12.79;44.65
74621;BME280;64861;47.546;19.254;2023-02-01T09:13:26;99197.50;;;12.80;44.49
74621;BME280;64861;47.546;19.254;2023-02-01T09:15:52;99189.44;;;12.94;44.11
74621;BME280;64861;47.546;19.254;2023-02-01T09:18:17;99198.22;;;12.82;44.21
74621;BME280;64861;47.546;19.254;2023-02-01T09:20:43;99193.44;;;12.76;44.62
74621;BME280;64861;47.546;19.254;2023-02-01T09:23:08;99196.16;;;12.75;44.71
74621;BME280;64861;47.546;19.254;2023-02-01T09:25:36;99199.41;;;12.78;44.67
74621;BME280;64861;47.546;19.254;2023-02-01T09:28:01;99194.72;;;13.06;43.84
74621;BME280;64861;47.546;19.254;2023-02-01T09:30:29;99199.97;;;15.15;39.53
74621;BME280;64861;47.546;19.254;2023-02-01T09:32:54;99209.53;;;16.08;37.97
74621;BME280;64861;47.546;19.254;2023-02-01T09:35:20;99198.50;;;15.73;37.79
74621;BME280;64861;47.546;19.254;2023-02-01T09:37:45;99202.56;;;13.97;41.87
74621;BME280;64861;47.546;19.254;2023-02-01T09:40:14;99194.78;;;13.28;43.13
74621;BME280;64861;47.546;19.254;2023-02-01T09:42:49;99198.03;;;12.97;44.36
74621;BME280;64861;47.546;19.254;2023-02-01T09:48:19;99179.88;;;13.40;42.99
74621;BME280;64861;47.546;19.254;2023-02-01T09:50:52;99186.91;;;13.39;43.28
74621;BME280;64861;47.546;19.254;2023-02-01T09:53:29;99185.97;;;13.40;43.22
74621;BME280;64861;47.546;19.254;2023-02-01T09:56:07;99181.44;;;13.31;43.60
74621;BME280;64861;47.546;19.254;2023-02-01T09:58:36;99180.91;;;14.05;42.19
74621;BME280;64861;47.546;19.254;2023-02-01T10:01:04;99193.47;;;14.45;41.46
74621;BME280;64861;47.546;19.254;2023-02-01T10:03:34;99181.13;;;16.21;37.97
74621;BME280;64861;47.546;19.254;2023-02-01T10:12:29;99163.91;;;20.41;30.72
74621;BME280;64861;47.546;19.254;2023-02-01T10:26:08;99149.59;;;14.77;40.33
74621;BME280;64861;47.546;19.254;2023-02-01T10:28:37;99154.06;;;14.33;41.03
74621;BME280;64861;47.546;19.254;2023-02-01T10:31:05;99136.06;;;14.50;41.44
74621;BME280;64861;47.546;19.254;2023-02-01T10:33:36;99135.22;;;14.28;41.72
74621;BME280;64861;47.546;19.254;2023-02-01T10:36:21;99121.09;;;15.34;39.86
74621;BME280;64861;47.546;19.254;2023-02-01T10:38:47;99121.81;;;15.77;38.54
74621;BME280;64861;47.546;19.254;2023-02-01T10:41:22;99129.88;;;15.44;39.10
74621;BME280;64861;47.546;19.254;2023-02-01T10:43:54;99123.34;;;14.66;40.90
74621;BME280;64861;47.546;19.254;2023-02-01T10:46:22;99132.69;;;14.27;41.50
74621;BME280;64861;47.546;19.254;2023-02-01T10:48:49;99135.03;;;14.09;41.95
74621;BME280;64861;47.546;19.254;2023-02-01T10:54:36;99125.22;;;14.43;41.28
74621;BME280;64861;47.546;19.254;2023-02-01T10:57:07;99113.03;;;14.10;42.00
74621;BME280;64861;47.546;19.254;2023-02-01T10:59:33;99114.75;;;14.00;42.50
74621;BME280;64861;47.546;19.254;2023-02-01T11:02:13;99109.34;;;14.13;42.31
74621;BME280;64861;47.546;19.254;2023-02-01T11:04:40;99104.75;;;14.26;41.94
74621;BME280;64861;47.546;19.254;2023-02-01T11:09:40;99103.22;;;13.91;42.59
74621;BME280;64861;47.546;19.254;2023-02-01T11:12:24;99100.97;;;13.64;43.41
74621;BME280;64861;47.546;19.254;2023-02-01T11:14:50;99096.81;;;13.50;43.99
74621;BME280;64861;47.546;19.254;2023-02-01T11:19:45;99085.03;;;13.45;44.10
74621;BME280;64861;47.546;19.254;2023-02-01T11:22:12;99091.34;;;13.42;44.07
74621;BME280;64861;47.546;19.254;2023-02-01T11:24:40;99087.56;;;13.35;44.55
74621;BME280;64861;47.546;19.254;2023-02-01T11:27:17;99087.44;;;13.25;44.42
74621;BME280;64861;47.546;19.254;2023-02-01T11:29:49;99083.84;;;13.26;44.69
74621;BME280;64861;47.546;19.254;2023-02-01T11:32:18;99082.41;;;13.33;44.76
74621;BME280;64861;47.546;19.254;2023-02-01T11:35:05;99086.66;;;13.57;43.99
74621;BME280;64861;47.546;19.254;2023-02-01T11:37:36;99082.38;;;13.56;44.29
74621;BME280;64861;47.546;19.254;2023-02-01T11:40:23;99069.03;;;13.59;44.01
74621;BME280;64861;47.546;19.254;2023-02-01T11:42:55;99067.59;;;13.44;44.57
74621;BME280;64861;47.546;19.254;2023-02-01T11:45:26;99069.53;;;13.30;44.73
74621;BME280;64861;47.546;19.254;2023-02-01T11:47:52;99069.06;;;13.25;44.85
74621;BME280;64861;47.546;19.254;2023-02-01T11:50:25;99058.56;;;13.25;45.06
74621;BME280;64861;47.546;19.254;2023-02-01T11:56:07;99053.03;;;13.17;45.00
74621;BME280;64861;47.546;19.254;2023-02-01T11:58:50;99049.84;;;13.13;45.19
74621;BME280;64861;47.546;19.254;2023-02-01T12:01:26;99044.59;;;13.13;45.21
74621;BME280;64861;47.546;19.254;2023-02-01T12:12:37;99016.34;;;13.28;45.02
74621;BME280;64861;47.546;19.254;2023-02-01T12:21:56;99017.88;;;13.20;45.20
74621;BME280;64861;47.546;19.254;2023-02-01T12:32:57;99035.16;;;13.11;45.52
74621;BME280;64861;47.546;19.254;2023-02-01T12:40:43;99040.41;;;13.11;45.65
74621;BME280;64861;47.546;19.254;2023-02-01T12:43:36;99047.44;;;13.10;45.79
74621;BME280;64861;47.546;19.254;2023-02-01T12:46:08;99042.34;;;13.09;45.81
74621;BME280;64861;47.546;19.254;2023-02-01T12:48:36;99055.31;;;13.10;45.80
74621;BME280;64861;47.546;19.254;2023-02-01T12:51:23;99058.06;;;13.09;45.78
74621;BME280;64861;47.546;19.254;2023-02-01T12:56:21;99054.63;;;13.08;45.82
74621;BME280;64861;47.546;19.254;2023-02-01T12:58:50;99039.56;;;13.10;45.88
74621;BME280;64861;47.546;19.254;2023-02-01T13:01:21;99031.69;;;13.10;46.07
74621;BME280;64861;47.546;19.254;2023-02-01T13:03:59;99020.03;;;13.14;45.86
74621;BME280;64861;47.546;19.254;2023-02-01T13:06:42;99018.00;;;13.18;45.79
74621;BME280;64861;47.546;19.254;2023-02-01T13:09:47;99004.31;;;13.26;45.81
74621;BME280;64861;47.546;19.254;2023-02-01T13:12:31;98992.84;;;13.27;45.58
74621;BME280;64861;47.546;19.254;2023-02-01T13:15:26;98987.59;;;13.27;45.79
74621;BME280;64861;47.546;19.254;2023-02-01T13:17:56;98990.81;;;13.30;45.57
74621;BME280;64861;47.546;19.254;2023-02-01T13:20:31;98987.16;;;13.54;44.97
74621;BME280;64861;47.546;19.254;2023-02-01T13:23:05;98986.09;;;13.56;44.91
74621;BME280;64861;47.546;19.254;2023-02-01T13:25:47;98975.63;;;13.45;45.14
74621;BME280;64861;47.546;19.254;2023-02-01T13:42:12;98969.66;;;13.43;45.75
74621;BME280;64861;47.546;19.254;2023-02-01T13:44:42;98975.28;;;13.38;45.67
74621;BME280;64861;47.546;19.254;2023-02-01T13:49:45;98991.38;;;13.34;45.98
74621;BME280;64861;47.546;19.254;2023-02-01T13:52:41;98987.94;;;13.33;45.78
74621;BME280;64861;47.546;19.254;2023-02-01T13:58:18;98988.06;;;13.32;46.17
74621;BME280;64861;47.546;19.254;2023-02-01T14:00:45;98974.94;;;13.32;46.04
74621;BME280;64861;47.546;19.254;2023-02-01T14:03:19;98982.81;;;13.32;45.88
74621;BME280;64861;47.546;19.254;2023-02-01T14:08:16;98972.31;;;13.32;46.07
74621;BME280;64861;47.546;19.254;2023-02-01T14:13:38;98962.84;;;13.40;45.72
74621;BME280;64861;47.546;19.254;2023-02-01T14:26:21;99056.28;;;13.43;45.85
74621;BME280;64861;47.546;19.254;2023-02-01T14:29:22;99036.00;;;13.45;46.06
74621;BME280;64861;47.546;19.254;2023-02-01T14:32:04;99038.72;;;13.44;46.10
74621;BME280;64861;47.546;19.254;2023-02-01T14:47:50;99026.53;;;13.54;45.99
74621;BME280;64861;47.546;19.254;2023-02-01T14:50:25;99031.09;;;13.52;45.91
74621;BME280;64861;47.546;19.254;2023-02-01T15:09:07;99020.34;;;13.55;46.13
74621;BME280;64861;47.546;19.254;2023-02-01T15:14:30;99018.78;;;13.52;46.28
74621;BME280;64861;47.546;19.254;2023-02-01T15:16:56;99017.84;;;13.53;46.11
74621;BME280;64861;47.546;19.254;2023-02-01T15:19:25;99010.91;;;13.52;46.13
74621;BME280;64861;47.546;19.254;2023-02-01T15:21:53;99018.56;;;13.55;46.13
74621;BME280;64861;47.546;19.254;2023-02-01T15:24:21;99015.22;;;13.53;46.42
74621;BME280;64861;47.546;19.254;2023-02-01T15:26:47;99005.53;;;13.54;46.43
74621;BME280;64861;47.546;19.254;2023-02-01T15:29:14;99006.00;;;13.59;46.26
74621;BME280;64861;47.546;19.254;2023-02-01T15:31:45;99002.41;;;13.60;46.09
74621;BME280;64861;47.546;19.254;2023-02-01T15:34:12;99006.13;;;13.57;46.19
74621;BME280;64861;47.546;19.254;2023-02-01T15:36:38;99011.13;;;13.60;46.12
74621;BME280;64861;47.546;19.254;2023-02-01T15:42:09;99008.38;;;13.62;46.15
74621;BME280;64861;47.546;19.254;2023-02-01T15:44:41;99007.66;;;13.60;46.07
74621;BME280;64861;47.546;19.254;2023-02-01T15:47:19;99011.13;;;13.60;46.39
74621;BME280;64861;47.546;19.254;2023-02-01T15:49:56;99017.34;;;13.59;46.31
74621;BME280;64861;47.546;19.254;2023-02-01T15:52:41;99011.00;;;13.62;46.39
74621;BME280;64861;47.546;19.254;2023-02-01T15:57:43;99005.53;;;13.65;46.31
74621;BME280;64861;47.546;19.254;2023-02-01T16:00:30;99018.41;;;13.68;46.13
74621;BME280;64861;47.546;19.254;2023-02-01T16:03:00;99021.13;;;13.67;46.02
74621;BME280;64861;47.546;19.254;2023-02-01T16:05:39;99028.31;;;13.65;46.41
74621;BME280;64861;47.546;19.254;2023-02-01T16:08:16;99035.22;;;13.66;46.67
74621;BME280;64861;47.546;19.254;2023-02-01T16:10:46;99033.56;;;13.65;46.22
74621;BME280;64861;47.546;19.254;2023-02-01T16:13:14;99040.25;;;13.69;46.29